Time;durP1;ratioP1;P1;durP2;ratioP2;P2;SDS_P1;SDS_P2;PMS_P1;PMS_P2;Temp;Humidity;BMP_temperature;BMP_pressure;BME280_temperature;BME280_humidity;BME280_pressure;Samples;Min_cycle;Max_cycle;Signal;HPM_P1;HPM_P2
2021/12/12 00:01:41;;;;;;;89.63;34.83;;;3.80;99.90;;;;;;4842079;29;20093;-90
2021/12/12 00:04:14;;;;;;;84.35;31.77;;;3.90;99.90;;;;;;4843194;29;20054;-90
2021/12/12 00:06:45;;;;;;;100.28;31.65;;;3.90;99.90;;;;;;4854285;29;20409;-90
2021/12/12 00:09:29;;;;;;;88.30;34.42;;;4.00;99.90;;;;;;4844986;29;20046;-89
2021/12/12 00:11:56;;;;;;;89.53;34.03;;;4.00;99.90;;;;;;4829614;29;20096;-90
2021/12/12 00:14:26;;;;;;;85.82;34.17;;;4.00;99.90;;;;;;4829410;29;20085;-90
2021/12/12 00:16:53;;;;;;;87.15;33.78;;;4.10;99.90;;;;;;4829224;29;20053;-90
2021/12/12 00:19:19;;;;;;;84.03;33.28;;;4.10;99.90;;;;;;4829090;29;20045;-89
2021/12/12 00:21:49;;;;;;;83.22;31.52;;;4.10;99.90;;;;;;4845333;29;20057;-89
2021/12/12 00:24:16;;;;;;;82.18;32.10;;;4.10;99.90;;;;;;4847538;29;20412;-90
2021/12/12 00:26:48;;;;;;;79.85;30.55;;;4.10;99.90;;;;;;4851886;29;20124;-90
2021/12/12 00:29:15;;;;;;;85.05;32.95;;;4.10;99.90;;;;;;4849387;29;20462;-90
2021/12/12 00:31:52;;;;;;;76.75;31.38;;;4.10;99.90;;;;;;4847480;29;20100;-90
2021/12/12 00:34:21;;;;;;;75.68;32.92;;;4.10;99.90;;;;;;4848000;29;20054;-89
2021/12/12 00:36:47;;;;;;;80.63;31.50;;;4.10;99.90;;;;;;4852243;29;20124;-90
2021/12/12 00:39:19;;;;;;;74.00;30.58;;;4.10;99.90;;;;;;4842704;29;20505;-90
2021/12/12 00:41:59;;;;;;;75.43;33.03;;;4.10;99.90;;;;;;4848057;29;20133;-89
2021/12/12 00:44:26;;;;;;;76.03;31.90;;;4.20;99.90;;;;;;4847483;29;20064;-89
2021/12/12 00:46:55;;;;;;;79.45;31.63;;;4.20;99.90;;;;;;4828775;29;20175;-89
2021/12/12 00:49:24;;;;;;;73.35;31.48;;;4.20;99.90;;;;;;4829041;29;20054;-89
2021/12/12 00:51:50;;;;;;;70.82;31.92;;;4.20;99.90;;;;;;4829143;29;20046;-90
2021/12/12 00:54:22;;;;;;;74.72;33.03;;;4.20;99.90;;;;;;4834838;29;20053;-89
2021/12/12 00:56:48;;;;;;;79.85;33.22;;;4.20;99.90;;;;;;4846017;29;20052;-90
2021/12/12 00:59:15;;;;;;;73.53;32.55;;;4.20;99.90;;;;;;4849666;29;20053;-90
2021/12/12 01:01:50;;;;;;;73.88;34.95;;;4.20;99.90;;;;;;4847099;29;20045;-89
2021/12/12 01:04:30;;;;;;;73.93;33.65;;;4.20;99.90;;;;;;4826865;29;20053;-90
2021/12/12 01:06:59;;;;;;;78.97;36.55;;;4.20;99.90;;;;;;4810542;29;20062;-90
2021/12/12 01:09:29;;;;;;;76.82;34.80;;;4.20;99.90;;;;;;4835084;29;20062;-90
2021/12/12 01:12:01;;;;;;;71.15;31.80;;;4.30;99.90;;;;;;4825618;29;20061;-90
2021/12/12 01:14:35;;;;;;;78.78;34.10;;;4.30;99.90;;;;;;4827553;29;20045;-89
2021/12/12 01:17:25;;;;;;;70.22;35.05;;;4.20;99.90;;;;;;4828162;29;20443;-91
2021/12/12 01:20:00;;;;;;;74.53;33.28;;;4.20;99.90;;;;;;4828221;29;20388;-90
2021/12/12 01:22:33;;;;;;;75.30;32.30;;;4.20;99.90;;;;;;4828372;29;20049;-92
2021/12/12 01:25:17;;;;;;;66.18;30.80;;;4.20;99.90;;;;;;4828624;29;20073;-93
2021/12/12 01:27:47;;;;;;;71.97;33.97;;;4.20;99.90;;;;;;4844029;29;20049;-94
2021/12/12 01:30:16;;;;;;;73.05;37.08;;;4.20;99.90;;;;;;4835184;29;20050;-94
2021/12/12 01:32:46;;;;;;;85.53;37.95;;;4.20;99.90;;;;;;4825906;29;20050;-95
2021/12/12 01:35:16;;;;;;;83.57;37.33;;;4.20;99.90;;;;;;4826718;29;20046;-94
2021/12/12 01:38:50;;;;;;;68.65;32.88;;;4.20;99.90;;;;;;4828702;29;20053;-95
2021/12/12 01:40:31;;;;;;;77.18;34.22;;;4.20;99.90;;;;;;4831696;29;20054;-96
2021/12/12 01:43:12;;;;;;;79.72;38.55;;;4.20;99.90;;;;;;4810601;29;20123;-93
2021/12/12 01:45:44;;;;;;;82.43;34.03;;;4.20;99.90;;;;;;4811979;29;20086;-92
2021/12/12 01:48:23;;;;;;;82.25;37.38;;;4.20;99.90;;;;;;4829095;29;20042;-93
2021/12/12 01:50:57;;;;;;;71.10;32.55;;;4.20;99.90;;;;;;4828092;29;20132;-92
2021/12/12 01:53:26;;;;;;;81.90;36.65;;;4.20;99.90;;;;;;4828390;29;20048;-91
2021/12/12 01:56:07;;;;;;;85.38;39.22;;;4.30;99.90;;;;;;4827868;29;20049;-91
2021/12/12 01:58:38;;;;;;;85.20;36.78;;;4.30;99.90;;;;;;4827824;29;20046;-93
2021/12/12 02:01:05;;;;;;;83.13;37.30;;;4.30;99.90;;;;;;4837241;29;20054;-90
2021/12/12 02:03:34;;;;;;;84.18;36.78;;;4.30;99.90;;;;;;4824614;29;20050;-90
2021/12/12 02:06:02;;;;;;;84.15;36.55;;;4.30;99.90;;;;;;4809715;29;20137;-90
2021/12/12 02:08:30;;;;;;;89.65;38.45;;;4.30;99.90;;;;;;4825630;29;20046;-92
2021/12/12 02:11:02;;;;;;;66.63;30.73;;;4.40;99.90;;;;;;4834152;29;20046;-91
2021/12/12 02:13:31;;;;;;;64.88;29.25;;;4.40;99.90;;;;;;4812792;29;20052;-91
2021/12/12 02:16:00;;;;;;;84.80;37.42;;;4.40;99.90;;;;;;4824627;29;20129;-91
2021/12/12 02:18:33;;;;;;;86.85;39.30;;;4.50;99.90;;;;;;4812156;29;20486;-91
2021/12/12 02:37:28;;;;;;;80.00;34.47;;;4.60;99.90;;;;;;4808930;29;20058;-91
2021/12/12 02:39:55;;;;;;;75.85;33.60;;;4.60;99.90;;;;;;4826395;29;20502;-90
2021/12/12 02:42:22;;;;;;;78.22;32.97;;;4.70;99.90;;;;;;4833681;29;20118;-90
2021/12/12 02:44:51;;;;;;;67.88;30.38;;;4.70;99.90;;;;;;4824219;29;20160;-91
2021/12/12 02:47:20;;;;;;;83.60;33.63;;;4.70;99.90;;;;;;4837918;29;20041;-92
2021/12/12 02:52:27;;;;;;;78.63;36.05;;;4.70;99.90;;;;;;4826991;29;20093;-90
2021/12/12 02:54:53;;;;;;;105.70;38.35;;;4.70;99.90;;;;;;4823927;29;20050;-91
2021/12/12 02:57:19;;;;;;;80.50;34.90;;;4.70;99.90;;;;;;4808964;29;20046;-91
2021/12/12 02:59:50;;;;;;;84.32;35.08;;;4.70;99.90;;;;;;4808871;29;20050;-91
2021/12/12 03:02:25;;;;;;;79.32;34.88;;;4.60;99.90;;;;;;4820088;29;20099;-91
2021/12/12 03:04:54;;;;;;;80.65;32.75;;;4.70;99.90;;;;;;4832905;29;20144;-91
2021/12/12 03:07:20;;;;;;;67.97;29.13;;;4.60;99.90;;;;;;4852372;29;20054;-91
2021/12/12 03:09:56;;;;;;;77.05;31.23;;;4.70;99.90;;;;;;4826638;29;20490;-91
2021/12/12 03:12:30;;;;;;;72.30;30.77;;;4.60;99.90;;;;;;4837814;29;20053;-91
2021/12/12 03:15:02;;;;;;;72.97;31.88;;;4.70;99.90;;;;;;4845008;29;20045;-91
2021/12/12 03:17:30;;;;;;;86.63;32.90;;;4.70;99.90;;;;;;4842177;29;20050;-92
2021/12/12 03:20:01;;;;;;;72.45;30.13;;;4.70;99.90;;;;;;4830160;29;20049;-93
2021/12/12 03:22:28;;;;;;;74.82;30.55;;;4.70;99.90;;;;;;4845576;29;20074;-92
2021/12/12 03:24:54;;;;;;;76.03;32.00;;;4.70;99.90;;;;;;4845116;29;20060;-91
2021/12/12 03:27:23;;;;;;;75.05;33.63;;;4.70;99.90;;;;;;4844864;29;20092;-91
2021/12/12 03:29:51;;;;;;;74.57;30.30;;;4.70;99.90;;;;;;4842089;29;20042;-92
2021/12/12 03:32:20;;;;;;;73.75;31.67;;;4.80;99.90;;;;;;4828929;29;20050;-91
2021/12/12 03:34:50;;;;;;;54.33;27.67;;;4.80;99.90;;;;;;4844494;29;20058;-91
2021/12/12 03:37:18;;;;;;;73.38;32.00;;;4.80;99.90;;;;;;4837179;29;20054;-91
2021/12/12 03:39:47;;;;;;;67.13;28.83;;;4.90;99.90;;;;;;4841654;29;20050;-91
2021/12/12 03:42:22;;;;;;;75.75;30.15;;;4.90;99.90;;;;;;4827150;29;20500;-91
2021/12/12 03:44:48;;;;;;;59.53;25.77;;;4.90;99.90;;;;;;4842344;29;20046;-91
2021/12/12 03:47:32;;;;;;;55.78;25.65;;;5.00;99.90;;;;;;4826339;29;20046;-90
2021/12/12 03:50:00;;;;;;;55.30;25.52;;;5.10;99.90;;;;;;4838877;29;20048;-91
2021/12/12 03:52:27;;;;;;;50.25;23.40;;;5.10;99.90;;;;;;4861408;29;20541;-93
2021/12/12 03:54:59;;;;;;;43.28;21.77;;;5.10;99.90;;;;;;4845559;29;20114;-91
2021/12/12 03:57:30;;;;;;;51.10;24.20;;;5.20;99.90;;;;;;4844745;29;20231;-90
2021/12/12 04:00:10;;;;;;;41.75;19.08;;;5.20;99.90;;;;;;4845084;29;20055;-91
2021/12/12 04:02:36;;;;;;;50.45;23.33;;;5.30;99.90;;;;;;4841846;29;20050;-91
2021/12/12 04:05:03;;;;;;;47.20;21.75;;;5.30;99.90;;;;;;4842894;29;20595;-90
2021/12/12 04:07:30;;;;;;;45.28;21.45;;;5.30;99.90;;;;;;4844271;29;20085;-91
2021/12/12 04:09:56;;;;;;;45.25;23.02;;;5.20;99.90;;;;;;4844343;29;20049;-90
2021/12/12 04:12:23;;;;;;;46.22;21.25;;;5.30;99.90;;;;;;4834137;29;20100;-92
2021/12/12 04:14:52;;;;;;;42.35;20.63;;;5.30;99.90;;;;;;4842341;29;20064;-91
2021/12/12 04:17:22;;;;;;;46.00;23.20;;;5.30;99.90;;;;;;4843206;29;20106;-90
2021/12/12 04:19:51;;;;;;;47.40;23.45;;;5.30;99.90;;;;;;4844664;29;20056;-91
2021/12/12 04:22:17;;;;;;;53.30;25.38;;;5.30;99.90;;;;;;4826732;29;20042;-90
2021/12/12 04:24:51;;;;;;;49.35;22.90;;;5.30;99.90;;;;;;4832033;29;20060;-90
2021/12/12 04:27:17;;;;;;;;;;;5.30;99.90;;;;;;4845133;29;20045;-91
2021/12/12 04:29:47;;;;;;;36.80;18.25;;;5.30;99.90;;;;;;4844619;29;19928;-90
2021/12/12 04:32:19;;;;;;;43.33;20.70;;;5.30;99.90;;;;;;4845413;29;20045;-92
2021/12/12 04:34:58;;;;;;;44.10;19.45;;;5.30;99.90;;;;;;4848115;29;20085;-90
2021/12/12 04:37:25;;;;;;;42.08;21.33;;;5.30;99.90;;;;;;4844352;29;20482;-90
2021/12/12 04:39:56;;;;;;;33.30;17.73;;;5.40;99.90;;;;;;4829032;29;20081;-91
2021/12/12 04:42:33;;;;;;;37.85;17.33;;;5.40;99.90;;;;;;4831763;29;20058;-91
2021/12/12 04:45:36;;;;;;;39.17;19.63;;;5.40;99.90;;;;;;4853987;29;20137;-91
2021/12/12 04:51:39;;;;;;;40.17;17.92;;;5.50;99.90;;;;;;4847002;29;20113;-91
2021/12/12 04:54:19;;;;;;;37.80;19.63;;;5.40;99.90;;;;;;4847549;29;20046;-90
2021/12/12 04:56:58;;;;;;;41.80;20.00;;;5.50;99.90;;;;;;4847194;29;20512;-91
2021/12/12 04:59:32;;;;;;;32.38;17.08;;;5.50;99.90;;;;;;4844407;29;20053;-90
2021/12/12 05:02:13;;;;;;;28.35;14.40;;;5.50;99.90;;;;;;4828941;29;20046;-92
2021/12/12 05:04:56;;;;;;;31.98;16.00;;;5.50;99.90;;;;;;4828694;29;20066;-90
2021/12/12 05:07:36;;;;;;;32.97;17.02;;;5.50;99.90;;;;;;4842720;29;20052;-90
2021/12/12 05:10:10;;;;;;;37.55;17.98;;;5.50;99.90;;;;;;4846806;29;20049;-91
2021/12/12 05:12:41;;;;;;;35.47;16.92;;;5.50;99.90;;;;;;4844180;29;20137;-91
2021/12/12 05:15:13;;;;;;;40.17;20.00;;;5.60;99.90;;;;;;4828747;29;20057;-91
2021/12/12 05:17:43;;;;;;;35.20;17.13;;;5.60;99.90;;;;;;4845164;29;20050;-92
2021/12/12 05:20:29;;;;;;;38.00;18.38;;;5.50;99.90;;;;;;4846964;29;20045;-91
2021/12/12 05:22:58;;;;;;;28.83;15.20;;;5.50;99.90;;;;;;4846783;29;20378;-91
2021/12/12 05:25:28;;;;;;;29.73;16.13;;;5.50;99.90;;;;;;4843686;29;20041;-92
2021/12/12 05:27:56;;;;;;;40.42;18.83;;;5.60;99.90;;;;;;4828785;29;20558;-91
2021/12/12 05:30:27;;;;;;;40.92;20.17;;;5.50;99.90;;;;;;4828663;29;20061;-90
2021/12/12 05:32:53;;;;;;;43.70;19.48;;;5.50;99.90;;;;;;4828458;29;20127;-90
2021/12/12 05:35:28;;;;;;;39.35;20.50;;;5.50;99.90;;;;;;4828678;29;20072;-89
2021/12/12 05:37:57;;;;;;;43.15;20.75;;;5.50;99.90;;;;;;4841535;29;20085;-91
2021/12/12 05:40:26;;;;;;;39.25;19.42;;;5.50;99.90;;;;;;4846293;29;20512;-91
2021/12/12 05:42:55;;;;;;;38.38;19.38;;;5.50;99.90;;;;;;4846304;29;20109;-91
2021/12/12 05:45:21;;;;;;;37.97;19.55;;;5.50;99.90;;;;;;4843341;29;20574;-91
2021/12/12 05:47:48;;;;;;;45.35;21.58;;;5.50;99.90;;;;;;4847304;29;20493;-90
2021/12/12 05:50:15;;;;;;;38.08;17.23;;;5.50;99.90;;;;;;4842949;29;20058;-90
2021/12/12 05:52:43;;;;;;;38.47;19.27;;;5.50;99.90;;;;;;4828308;29;20087;-89
2021/12/12 05:55:11;;;;;;;37.53;17.90;;;5.60;99.90;;;;;;4837292;29;20125;-90
2021/12/12 05:57:38;;;;;;;33.47;17.05;;;5.60;99.90;;;;;;4827869;29;20554;-90
2021/12/12 06:00:12;;;;;;;36.63;18.35;;;5.60;99.90;;;;;;4827959;29;20050;-91
2021/12/12 06:02:38;;;;;;;44.33;18.77;;;5.60;99.90;;;;;;4828649;29;20212;-92
2021/12/12 06:05:05;;;;;;;36.63;19.38;;;5.60;99.90;;;;;;4837010;29;20101;-91
2021/12/12 06:07:31;;;;;;;32.42;16.48;;;5.60;99.90;;;;;;4851315;29;20550;-90
2021/12/12 06:10:00;;;;;;;39.70;18.10;;;5.60;99.90;;;;;;4842794;29;20050;-91
2021/12/12 06:12:26;;;;;;;40.75;19.13;;;5.60;99.90;;;;;;4845454;29;20523;-91
2021/12/12 06:14:53;;;;;;;37.30;18.45;;;5.60;99.90;;;;;;4845735;29;20084;-91
2021/12/12 06:17:21;;;;;;;32.35;16.90;;;5.60;99.90;;;;;;4850954;29;20128;-91
2021/12/12 06:19:47;;;;;;;36.10;17.60;;;5.70;99.90;;;;;;4839605;29;20041;-91
2021/12/12 06:22:14;;;;;;;37.05;17.13;;;5.60;99.90;;;;;;4827736;29;20057;-91
2021/12/12 06:24:40;;;;;;;41.63;19.27;;;5.60;99.90;;;;;;4827591;29;20057;-91
2021/12/12 06:27:13;;;;;;;36.97;18.15;;;5.70;99.90;;;;;;4827552;29;20049;-92
2021/12/12 06:29:41;;;;;;;37.50;18.00;;;5.70;99.90;;;;;;4827211;29;20046;-90
2021/12/12 06:32:09;;;;;;;36.85;16.25;;;5.70;99.90;;;;;;4827249;29;20539;-90
2021/12/12 06:34:35;;;;;;;38.55;17.20;;;5.70;99.90;;;;;;4827311;29;20456;-91
2021/12/12 06:37:01;;;;;;;37.08;17.98;;;5.70;99.90;;;;;;4827220;29;20088;-90
2021/12/12 06:39:27;;;;;;;35.53;16.85;;;5.70;99.90;;;;;;4850328;29;20045;-90
2021/12/12 06:41:54;;;;;;;40.45;18.02;;;5.70;99.90;;;;;;4845567;29;20049;-90
2021/12/12 06:44:20;;;;;;;46.33;19.38;;;5.70;99.90;;;;;;4845499;29;20053;-90
2021/12/12 06:46:46;;;;;;;43.58;18.67;;;5.70;99.90;;;;;;4845295;29;20046;-91
2021/12/12 06:49:16;;;;;;;40.40;18.70;;;5.80;99.90;;;;;;4837756;29;20038;-92
2021/12/12 06:51:50;;;;;;;40.85;18.33;;;5.80;99.90;;;;;;4842083;29;20045;-90
2021/12/12 06:54:21;;;;;;;41.22;19.55;;;5.80;99.90;;;;;;4826590;29;20050;-91
2021/12/12 06:56:50;;;;;;;43.97;19.77;;;5.80;99.90;;;;;;4827135;29;20053;-92
2021/12/12 06:59:16;;;;;;;44.33;18.38;;;5.90;99.90;;;;;;4827244;29;20054;-91
2021/12/12 07:01:42;;;;;;;36.60;19.27;;;5.90;99.90;;;;;;4827016;29;20137;-91
2021/12/12 07:04:11;;;;;;;38.65;18.02;;;5.90;99.90;;;;;;4826130;29;20479;-90
2021/12/12 07:06:39;;;;;;;42.60;17.48;;;5.90;99.90;;;;;;4808566;29;20384;-91
2021/12/12 07:09:11;;;;;;;44.83;18.98;;;5.90;99.90;;;;;;4815729;29;20042;-90
2021/12/12 07:11:38;;;;;;;44.65;18.73;;;5.90;99.90;;;;;;4823685;29;20058;-91
2021/12/12 07:14:07;;;;;;;46.80;18.67;;;6.00;99.90;;;;;;4815575;29;20105;-91
2021/12/12 07:16:33;;;;;;;54.90;18.90;;;6.00;99.90;;;;;;4826804;29;20045;-91
2021/12/12 07:19:00;;;;;;;52.38;19.92;;;6.00;99.90;;;;;;4832319;29;20049;-90
2021/12/12 07:21:27;;;;;;;54.25;20.92;;;5.90;99.90;;;;;;4827568;29;20293;-91
2021/12/12 07:23:54;;;;;;;44.08;18.45;;;6.00;99.90;;;;;;4826490;29;20056;-90
2021/12/12 07:26:22;;;;;;;48.60;20.08;;;6.00;99.90;;;;;;4826767;29;20054;-90
2021/12/12 07:28:48;;;;;;;52.67;19.73;;;6.00;99.90;;;;;;4826541;29;20494;-90
2021/12/12 07:31:22;;;;;;;50.58;19.80;;;6.00;99.90;;;;;;4827007;29;20038;-90
2021/12/12 07:33:52;;;;;;;56.25;21.30;;;6.00;99.90;;;;;;4826808;29;20068;-91
2021/12/12 07:36:19;;;;;;;56.65;21.33;;;6.00;99.90;;;;;;4823628;29;20050;-92
2021/12/12 07:38:48;;;;;;;48.00;18.00;;;6.00;99.90;;;;;;4808346;29;20407;-92
2021/12/12 07:41:18;;;;;;;57.35;20.48;;;6.00;99.90;;;;;;4826324;29;20054;-91
2021/12/12 07:43:47;;;;;;;53.00;19.90;;;6.00;99.90;;;;;;4823446;29;20046;-91
2021/12/12 07:46:13;;;;;;;55.17;19.50;;;6.00;99.90;;;;;;4808543;29;20049;-91
2021/12/12 07:48:44;;;;;;;56.50;20.33;;;6.00;99.90;;;;;;4808456;29;20058;-92
2021/12/12 07:51:10;;;;;;;58.70;19.17;;;6.00;99.90;;;;;;4827984;29;20046;-92
2021/12/12 07:54:22;;;;;;;;;;;;;;;;;;;;;
2021/12/12 07:56:57;;;;;;;55.72;19.63;;;6.10;99.90;;;;;;4826539;29;20054;-91
2021/12/12 07:59:24;;;;;;;59.60;19.95;;;6.10;99.90;;;;;;4827288;29;20049;-93
2021/12/12 08:01:54;;;;;;;60.50;21.42;;;6.10;99.90;;;;;;4826337;29;20493;-93
2021/12/12 08:04:24;;;;;;;61.88;21.05;;;6.10;99.90;;;;;;4828225;29;20410;-93
2021/12/12 08:06:53;;;;;;;65.63;21.52;;;6.10;99.90;;;;;;4846425;29;20090;-94
2021/12/12 08:09:24;;;;;;;61.65;17.98;;;6.10;99.90;;;;;;4848016;29;20064;-94
2021/12/12 08:11:53;;;;;;;77.47;23.02;;;6.10;99.90;;;;;;4854280;29;20045;-95
2021/12/12 08:14:26;;;;;;;47.70;18.60;;;6.10;99.90;;;;;;4848332;29;20053;-96
2021/12/12 08:16:53;;;;;;;73.00;23.55;;;6.10;99.90;;;;;;4843644;29;20045;-95
2021/12/12 08:19:24;;;;;;;72.93;23.27;;;6.20;99.90;;;;;;4845565;29;20118;-93
2021/12/12 08:21:58;;;;;;;80.57;25.73;;;6.20;99.90;;;;;;4844243;29;20046;-94
2021/12/12 08:24:24;;;;;;;67.88;22.77;;;6.20;99.90;;;;;;4844906;29;20053;-93
2021/12/12 08:26:52;;;;;;;79.47;22.48;;;6.20;99.90;;;;;;4837626;29;20061;-95
2021/12/12 08:29:21;;;;;;;78.72;23.65;;;6.20;99.90;;;;;;4835339;29;20050;-94
2021/12/12 08:31:48;;;;;;;63.35;21.05;;;6.20;99.90;;;;;;4829748;29;20050;-94
2021/12/12 08:34:14;;;;;;;79.95;23.02;;;6.20;99.90;;;;;;4829580;29;20439;-96
2021/12/12 08:36:44;;;;;;;81.70;23.60;;;6.20;99.90;;;;;;4829249;29;20093;-94
2021/12/12 08:39:12;;;;;;;83.60;23.27;;;6.20;99.90;;;;;;4844713;29;20090;-94
2021/12/12 08:41:39;;;;;;;89.05;25.25;;;6.20;99.90;;;;;;4850394;29;20053;-93
2021/12/12 08:44:09;;;;;;;79.68;23.20;;;6.20;99.90;;;;;;4849045;29;20046;-95
2021/12/12 08:46:38;;;;;;;84.05;23.30;;;6.30;99.90;;;;;;4846868;29;20130;-95
2021/12/12 08:49:04;;;;;;;89.28;25.95;;;6.30;99.90;;;;;;4847748;29;20045;-95
2021/12/12 08:51:35;;;;;;;86.20;23.80;;;6.30;99.90;;;;;;4849178;29;20132;-90
2021/12/12 08:54:13;;;;;;;83.50;23.83;;;6.30;99.90;;;;;;4848252;29;20045;-89
2021/12/12 08:56:48;;;;;;;83.50;23.77;;;6.30;99.90;;;;;;4836371;29;20083;-88
2021/12/12 09:07:37;;;;;;;;;;;;;;;;;;;;;
2021/12/12 09:40:41;;;;;;;;;;;;;;;;;;;;;
2021/12/12 09:47:13;;;;;;;91.55;25.05;;;6.60;99.90;;;;;;4975936;24;20632;-95
2021/12/12 09:54:02;;;;;;;104.95;24.75;;;6.60;99.90;;;;;;4854678;29;20041;-94
2021/12/12 09:57:07;;;;;;;120.85;26.63;;;6.70;99.90;;;;;;4865697;29;20076;-93
2021/12/12 10:00:00;;;;;;;119.63;27.35;;;6.70;99.90;;;;;;4851949;29;20044;-93
2021/12/12 10:02:28;;;;;;;;;;;6.70;99.90;;;;;;4866403;29;20507;-94
2021/12/12 10:05:22;;;;;;;110.50;25.55;;;6.70;99.90;;;;;;4866956;29;20426;-95
2021/12/12 10:07:51;;;;;;;102.50;25.70;;;6.70;99.90;;;;;;4881388;29;20060;-95
2021/12/12 10:10:27;;;;;;;102.68;24.60;;;6.70;99.90;;;;;;4865197;29;20045;-94
2021/12/12 10:13:20;;;;;;;120.35;25.95;;;6.80;99.90;;;;;;4864843;29;20182;-94
2021/12/12 10:15:54;;;;;;;101.75;25.17;;;6.80;99.90;;;;;;4864883;29;20072;-95
2021/12/12 10:19:00;;;;;;;125.97;25.95;;;6.80;99.90;;;;;;4864916;29;20045;-96
2021/12/12 10:21:55;;;;;;;118.57;25.70;;;6.90;99.90;;;;;;4868692;29;20080;-93
2021/12/12 10:24:34;;;;;;;129.52;27.20;;;6.90;99.90;;;;;;4864942;29;20085;-93
2021/12/12 10:27:17;;;;;;;106.05;24.90;;;6.90;99.90;;;;;;4864183;29;20390;-94
2021/12/12 10:30:01;;;;;;;115.90;25.15;;;6.90;99.90;;;;;;4868415;29;20078;-94
2021/12/12 10:32:33;;;;;;;109.57;25.15;;;7.00;99.90;;;;;;4872105;29;20492;-95
2021/12/12 10:35:07;;;;;;;128.07;25.88;;;7.10;99.90;;;;;;4865499;29;20080;-94
2021/12/12 10:37:57;;;;;;;119.35;26.55;;;7.00;99.90;;;;;;4868670;29;20041;-93
2021/12/12 10:40:45;;;;;;;149.32;27.25;;;7.10;99.90;;;;;;4884899;29;20084;-95
2021/12/12 10:43:22;;;;;;;127.53;24.42;;;7.10;99.90;;;;;;4885531;29;20560;-95
2021/12/12 10:46:15;;;;;;;127.38;25.67;;;7.20;99.90;;;;;;4887000;29;20056;-94
2021/12/12 10:49:24;;;;;;;116.75;23.95;;;7.20;99.90;;;;;;4889498;29;20453;-93
2021/12/12 10:52:11;;;;;;;138.77;26.90;;;7.20;99.90;;;;;;4882625;29;20123;-92
2021/12/12 10:55:21;;;;;;;;;;;;;;;;;;;;;
2021/12/12 11:00:49;;;;;;;141.95;26.52;;;7.40;99.90;;;;;;4909942;24;20064;-96
2021/12/12 11:03:42;;;;;;;132.43;27.00;;;7.40;99.90;;;;;;4851867;29;20053;-94
2021/12/12 11:06:35;;;;;;;137.97;24.50;;;7.40;99.90;;;;;;5490948;24;20029;-96
2021/12/12 11:15:19;;;;;;;108.95;24.42;;;7.40;99.90;;;;;;4867755;29;20502;-96
2021/12/12 11:18:24;;;;;;;;;;;;;;;;;;;;;
2021/12/12 11:21:29;;;;;;;118.32;24.05;;;7.50;99.90;;;;;;4830869;29;20057;-96
2021/12/12 11:24:21;;;;;;;107.43;23.30;;;7.60;99.90;;;;;;4864509;29;20106;-96
2021/12/12 11:27:24;;;;;;;;;;;;;;;;;;;;;
2021/12/12 11:30:24;;;;;;;;;;;;;;;;;;;;;
2021/12/12 11:33:15;;;;;;;111.55;22.05;;;7.60;99.90;;;;;;4803764;29;20093;-96
2021/12/12 11:35:47;;;;;;;109.70;22.83;;;7.70;99.90;;;;;;4848774;29;20054;-96
2021/12/12 11:38:41;;;;;;;105.05;22.60;;;7.70;99.90;;;;;;4843199;29;20054;-96
2021/12/12 11:41:21;;;;;;;104.47;22.00;;;7.80;99.90;;;;;;4846743;29;20498;-95
2021/12/12 11:44:14;;;;;;;106.18;19.77;;;7.80;99.90;;;;;;4855210;29;20549;-95
2021/12/12 11:55:27;;;;;;;81.72;18.25;;;7.80;99.90;;;;;;5259618;23;20077;-93
2021/12/12 11:57:58;;;;;;;79.35;17.15;;;7.90;99.90;;;;;;4862114;29;20045;-92
2021/12/12 12:00:34;;;;;;;85.78;19.00;;;7.90;99.90;;;;;;4862872;29;20053;-94
2021/12/12 12:03:30;;;;;;;95.88;18.13;;;7.90;99.90;;;;;;4862845;29;20049;-93
2021/12/12 12:06:14;;;;;;;73.18;16.70;;;8.00;99.90;;;;;;4863740;29;20056;-89
2021/12/12 12:08:48;;;;;;;72.28;15.63;;;8.00;99.90;;;;;;4863685;29;20136;-95
2021/12/12 12:11:28;;;;;;;84.57;17.38;;;8.00;99.90;;;;;;4863779;29;20533;-93
2021/12/12 12:14:06;;;;;;;82.88;16.42;;;8.00;99.90;;;;;;4863765;29;20054;-93
2021/12/12 12:16:48;;;;;;;104.10;17.73;;;8.10;99.90;;;;;;4863533;29;20048;-94
2021/12/12 12:19:48;;;;;;;91.40;16.42;;;8.10;99.90;;;;;;4865332;29;20052;-94
2021/12/12 12:22:29;;;;;;;59.95;12.90;;;8.10;99.90;;;;;;4863659;29;20494;-90
2021/12/12 12:25:15;;;;;;;76.70;14.02;;;8.10;99.90;;;;;;4866610;29;20132;-95
2021/12/12 12:27:50;;;;;;;44.88;11.57;;;8.20;99.90;;;;;;4865707;29;20622;-94
2021/12/12 12:30:55;;;;;;;57.08;10.50;;;8.20;99.90;;;;;;4864022;29;20053;-94
2021/12/12 12:33:45;;;;;;;29.02;8.80;;;8.30;99.90;;;;;;4864961;29;20114;-95
2021/12/12 12:36:23;;;;;;;33.17;9.30;;;8.40;99.90;;;;;;4864907;29;20045;-94
2021/12/12 12:39:14;;;;;;;25.83;8.40;;;8.40;99.90;;;;;;4864217;29;20053;-95
2021/12/12 12:42:04;;;;;;;27.65;8.77;;;8.50;99.90;;;;;;4864414;29;20093;-94
2021/12/12 12:45:17;;;;;;;40.25;8.73;;;8.60;99.90;;;;;;4864004;29;20048;-93
2021/12/12 12:48:31;;;;;;;;;;;;;;;;;;;;;
2021/12/12 12:51:15;;;;;;;30.58;8.60;;;8.70;99.90;;;;;;4865974;29;20056;-94
2021/12/12 12:54:07;;;;;;;32.50;8.48;;;8.80;99.90;;;;;;4862655;29;20504;-96
2021/12/12 12:57:11;;;;;;;37.63;9.00;;;8.80;99.90;;;;;;4869853;29;20054;-94
2021/12/12 13:00:05;;;;;;;29.55;8.85;;;8.80;99.90;;;;;;4863470;29;20087;-94
2021/12/12 13:02:56;;;;;;;29.77;8.55;;;8.90;99.90;;;;;;4864020;29;20045;-93
2021/12/12 13:06:09;;;;;;;32.38;8.98;;;8.90;99.90;;;;;;4864930;29;20088;-94
2021/12/12 13:09:10;;;;;;;31.85;7.95;;;8.90;99.90;;;;;;4863545;29;20442;-93
2021/12/12 13:11:48;;;;;;;27.88;8.48;;;9.00;99.90;;;;;;4862999;29;20077;-95
2021/12/12 13:14:13;;;;;;;32.08;8.65;;;9.00;99.90;;;;;;4867593;29;20045;-92
2021/12/12 13:16:40;;;;;;;25.17;8.07;;;9.00;99.90;;;;;;4864591;29;20181;-95
2021/12/12 13:19:13;;;;;;;34.00;9.45;;;9.00;99.90;;;;;;4865254;29;20132;-93
2021/12/12 13:22:05;;;;;;;30.13;8.35;;;9.00;99.90;;;;;;4866901;29;20090;-94
2021/12/12 13:25:15;;;;;;;32.42;8.27;;;9.00;99.90;;;;;;4864137;29;20109;-93
2021/12/12 13:28:08;;;;;;;37.42;8.70;;;9.00;99.90;;;;;;4865154;29;20401;-93
2021/12/12 13:31:01;;;;;;;27.40;7.78;;;9.00;99.90;;;;;;4867749;29;20053;-93
2021/12/12 13:34:02;;;;;;;29.63;8.73;;;9.00;99.90;;;;;;4862444;29;20525;-92
2021/12/12 13:37:01;;;;;;;27.80;8.80;;;9.00;99.90;;;;;;4862520;29;20068;-96
2021/12/12 13:39:51;;;;;;;38.38;8.02;;;9.00;99.90;;;;;;4862811;29;20118;-90
2021/12/12 13:42:41;;;;;;;29.08;8.48;;;8.90;99.90;;;;;;4862061;29;20052;-93
2021/12/12 13:45:29;;;;;;;31.42;8.43;;;9.00;99.90;;;;;;4862903;29;20057;-94
2021/12/12 13:48:25;;;;;;;28.92;7.72;;;9.00;99.90;;;;;;4862506;29;20545;-94
2021/12/12 13:51:25;;;;;;;36.08;8.80;;;9.00;99.90;;;;;;4862049;29;20056;-94
2021/12/12 13:54:21;;;;;;;39.13;9.45;;;8.90;99.90;;;;;;4862299;29;20045;-94
2021/12/12 13:57:27;;;;;;;31.33;9.60;;;8.90;99.90;;;;;;4862004;29;20109;-93
2021/12/12 14:00:09;;;;;;;34.97;9.60;;;8.90;99.90;;;;;;4861819;29;20056;-95
2021/12/12 14:02:39;;;;;;;35.97;9.60;;;9.00;99.90;;;;;;4862078;29;20050;-93
2021/12/12 14:05:15;;;;;;;37.17;9.75;;;9.00;99.90;;;;;;4862313;29;20049;-93
2021/12/12 14:07:59;;;;;;;35.90;9.98;;;8.90;99.90;;;;;;4861950;29;20114;-94
2021/12/12 14:10:33;;;;;;;45.05;11.52;;;8.90;99.90;;;;;;4861879;29;20053;-94
2021/12/12 14:13:09;;;;;;;36.42;9.90;;;8.90;99.90;;;;;;4863853;29;20045;-92
2021/12/12 14:15:38;;;;;;;40.47;10.57;;;8.90;99.90;;;;;;4862233;29;20049;-94
2021/12/12 14:18:07;;;;;;;44.25;10.70;;;8.90;99.90;;;;;;4861248;29;20511;-92
2021/12/12 14:21:00;;;;;;;43.85;10.48;;;8.90;99.90;;;;;;4861115;29;20128;-94
2021/12/12 14:23:29;;;;;;;48.30;10.35;;;8.90;99.90;;;;;;4847472;29;20054;-93
2021/12/12 14:26:17;;;;;;;59.13;11.13;;;8.90;99.90;;;;;;4861458;29;20086;-93
2021/12/12 14:28:47;;;;;;;83.53;12.98;;;8.90;99.90;;;;;;4861430;29;20149;-93
2021/12/12 14:31:23;;;;;;;79.13;12.00;;;8.90;99.90;;;;;;4861281;29;20049;-94
2021/12/12 14:34:01;;;;;;;61.58;11.82;;;8.90;99.90;;;;;;4861041;29;20387;-94
2021/12/12 14:36:39;;;;;;;92.90;13.20;;;8.90;99.90;;;;;;4861619;29;20136;-92
2021/12/12 14:39:06;;;;;;;113.40;14.50;;;8.90;99.90;;;;;;4861308;29;20052;-94
2021/12/12 14:41:39;;;;;;;182.63;16.75;;;8.90;99.90;;;;;;4860886;29;20100;-93
2021/12/12 14:44:42;;;;;;;;;;;8.90;99.90;;;;;;4861226;29;20489;-92
2021/12/12 14:47:17;;;;;;;44.00;10.27;;;8.80;99.90;;;;;;4860940;29;20447;-91
2021/12/12 14:49:54;;;;;;;77.90;11.95;;;8.80;99.90;;;;;;4861153;29;20052;-93
2021/12/12 14:52:33;;;;;;;131.50;16.83;;;8.80;99.90;;;;;;4861150;29;20481;-93
2021/12/12 14:55:04;;;;;;;186.55;17.90;;;8.80;99.90;;;;;;4860746;29;20069;-93
2021/12/12 14:57:33;;;;;;;109.25;14.25;;;8.80;99.90;;;;;;4860841;29;20128;-93
2021/12/12 15:00:14;;;;;;;89.15;13.60;;;8.80;99.90;;;;;;4860609;29;20085;-93